sensor_id;sensor_type;location;lat;lon;timestamp;pressure;altitude;pressure_sealevel;temperature;humidity
48527;BME280;34317;51.660;5.824;2022-12-29T00:00:10;100021.94;;;14.56;62.73
48527;BME280;34317;51.660;5.824;2022-12-29T00:02:41;100029.00;;;14.57;62.59
48527;BME280;34317;51.660;5.824;2022-12-29T00:05:08;100020.03;;;14.58;62.70
48527;BME280;34317;51.660;5.824;2022-12-29T00:07:35;100012.06;;;14.58;62.67
48527;BME280;34317;51.660;5.824;2022-12-29T00:10:03;100017.28;;;14.60;62.73
48527;BME280;34317;51.660;5.824;2022-12-29T00:12:30;99984.41;;;14.59;62.79
48527;BME280;34317;51.660;5.824;2022-12-29T00:15:17;100009.38;;;14.58;62.82
48527;BME280;34317;51.660;5.824;2022-12-29T00:18:03;100007.66;;;14.57;62.73
48527;BME280;34317;51.660;5.824;2022-12-29T00:20:34;100002.56;;;14.54;62.69
48527;BME280;34317;51.660;5.824;2022-12-29T00:23:20;99999.16;;;14.52;62.53
48527;BME280;34317;51.660;5.824;2022-12-29T00:26:13;100003.00;;;14.48;62.44
48527;BME280;34317;51.660;5.824;2022-12-29T00:28:59;99997.91;;;14.45;62.58
48527;BME280;34317;51.660;5.824;2022-12-29T00:31:45;100001.78;;;14.41;62.47
48527;BME280;34317;51.660;5.824;2022-12-29T00:34:30;99983.25;;;14.39;62.55
48527;BME280;34317;51.660;5.824;2022-12-29T00:37:17;99991.56;;;14.35;62.59
48527;BME280;34317;51.660;5.824;2022-12-29T00:39:44;99981.16;;;14.32;62.50
48527;BME280;34317;51.660;5.824;2022-12-29T00:42:31;99977.13;;;14.26;62.58
48527;BME280;34317;51.660;5.824;2022-12-29T00:45:16;99968.53;;;14.23;62.72
48527;BME280;34317;51.660;5.824;2022-12-29T00:47:44;99971.28;;;14.21;62.52
48527;BME280;34317;51.660;5.824;2022-12-29T00:50:11;99964.41;;;14.18;62.87
48527;BME280;34317;51.660;5.824;2022-12-29T00:52:38;99964.59;;;14.15;62.69
48527;BME280;34317;51.660;5.824;2022-12-29T00:55:05;99963.88;;;14.13;62.63
48527;BME280;34317;51.660;5.824;2022-12-29T00:57:32;99964.81;;;14.12;62.68
48527;BME280;34317;51.660;5.824;2022-12-29T01:00:00;99959.75;;;14.09;62.92
48527;BME280;34317;51.660;5.824;2022-12-29T01:02:28;99954.63;;;14.06;63.15
48527;BME280;34317;51.660;5.824;2022-12-29T01:04:55;99951.97;;;14.06;63.16
48527;BME280;34317;51.660;5.824;2022-12-29T01:07:22;99954.63;;;14.06;63.37
48527;BME280;34317;51.660;5.824;2022-12-29T01:09:49;99951.03;;;14.07;63.49
48527;BME280;34317;51.660;5.824;2022-12-29T01:12:35;99951.03;;;14.07;63.71
48527;BME280;34317;51.660;5.824;2022-12-29T01:15:11;99936.72;;;14.08;63.71
48527;BME280;34317;51.660;5.824;2022-12-29T01:17:39;99945.44;;;14.10;63.78
48527;BME280;34317;51.660;5.824;2022-12-29T01:20:06;99947.06;;;14.13;64.03
48527;BME280;34317;51.660;5.824;2022-12-29T01:22:34;99937.13;;;14.15;63.96
48527;BME280;34317;51.660;5.824;2022-12-29T01:25:03;99923.69;;;14.16;64.09
48527;BME280;34317;51.660;5.824;2022-12-29T01:27:30;99925.41;;;14.17;64.19
48527;BME280;34317;51.660;5.824;2022-12-29T01:29:58;99925.19;;;14.20;64.08
48527;BME280;34317;51.660;5.824;2022-12-29T01:32:25;99931.22;;;14.23;64.08
48527;BME280;34317;51.660;5.824;2022-12-29T01:34:52;99930.25;;;14.24;64.03
48527;BME280;34317;51.660;5.824;2022-12-29T01:37:19;99928.31;;;14.26;64.12
48527;BME280;34317;51.660;5.824;2022-12-29T01:39:46;99919.38;;;14.27;64.07
48527;BME280;34317;51.660;5.824;2022-12-29T01:42:18;99917.44;;;14.29;64.03
48527;BME280;34317;51.660;5.824;2022-12-29T01:44:57;99913.84;;;14.30;63.83
48527;BME280;34317;51.660;5.824;2022-12-29T01:47:26;99904.03;;;14.30;63.90
48527;BME280;34317;51.660;5.824;2022-12-29T01:49:58;99904.84;;;14.31;63.86
48527;BME280;34317;51.660;5.824;2022-12-29T01:52:28;99897.59;;;14.33;63.91
48527;BME280;34317;51.660;5.824;2022-12-29T01:54:57;99902.09;;;14.32;63.88
48527;BME280;34317;51.660;5.824;2022-12-29T01:57:31;99908.25;;;14.33;63.73
48527;BME280;34317;51.660;5.824;2022-12-29T02:00:04;99903.91;;;14.32;63.63
48527;BME280;34317;51.660;5.824;2022-12-29T02:02:38;99909.97;;;14.34;63.44
48527;BME280;34317;51.660;5.824;2022-12-29T02:05:14;99906.31;;;14.35;63.69
48527;BME280;34317;51.660;5.824;2022-12-29T02:07:46;99908.03;;;14.36;63.42
48527;BME280;34317;51.660;5.824;2022-12-29T02:10:15;99908.88;;;14.36;63.34
48527;BME280;34317;51.660;5.824;2022-12-29T02:12:42;99913.09;;;14.39;63.41
48527;BME280;34317;51.660;5.824;2022-12-29T02:15:09;99905.88;;;14.41;63.34
48527;BME280;34317;51.660;5.824;2022-12-29T02:20:37;99914.59;;;14.43;63.27
48527;BME280;34317;51.660;5.824;2022-12-29T02:23:34;99914.34;;;14.46;63.24
48527;BME280;34317;51.660;5.824;2022-12-29T02:35:01;99895.97;;;14.54;63.00
48527;BME280;34317;51.660;5.824;2022-12-29T02:37:43;99903.00;;;14.55;62.60
48527;BME280;34317;51.660;5.824;2022-12-29T02:43:36;99897.22;;;14.62;62.45
48527;BME280;34317;51.660;5.824;2022-12-29T02:46:17;99889.09;;;14.63;62.23
48527;BME280;34317;51.660;5.824;2022-12-29T02:48:54;99888.03;;;14.66;62.16
48527;BME280;34317;51.660;5.824;2022-12-29T02:51:32;99895.78;;;14.69;62.09
48527;BME280;34317;51.660;5.824;2022-12-29T02:54:03;99892.88;;;14.72;62.06
48527;BME280;34317;51.660;5.824;2022-12-29T02:56:48;99882.22;;;14.72;62.07
48527;BME280;34317;51.660;5.824;2022-12-29T02:59:16;99880.50;;;14.71;61.66
48527;BME280;34317;51.660;5.824;2022-12-29T03:02:00;99875.19;;;14.71;61.73
48527;BME280;34317;51.660;5.824;2022-12-29T03:08:06;99885.84;;;14.71;61.43
48527;BME280;34317;51.660;5.824;2022-12-29T03:10:41;99873.50;;;14.70;61.78
48527;BME280;34317;51.660;5.824;2022-12-29T03:19:04;99882.72;;;14.66;61.61
48527;BME280;34317;51.660;5.824;2022-12-29T03:24:41;99873.97;;;14.64;61.70
48527;BME280;34317;51.660;5.824;2022-12-29T03:27:14;99884.66;;;14.64;61.59
48527;BME280;34317;51.660;5.824;2022-12-29T03:29:50;99877.38;;;14.66;61.55
48527;BME280;34317;51.660;5.824;2022-12-29T03:32:35;99873.72;;;14.67;61.52
48527;BME280;34317;51.660;5.824;2022-12-29T03:35:04;99882.44;;;14.69;61.40
48527;BME280;34317;51.660;5.824;2022-12-29T03:37:37;99875.44;;;14.68;61.46
48527;BME280;34317;51.660;5.824;2022-12-29T03:40:06;99879.66;;;14.70;61.43
48527;BME280;34317;51.660;5.824;2022-12-29T03:42:35;99875.19;;;14.71;61.43
48527;BME280;34317;51.660;5.824;2022-12-29T03:45:04;99871.56;;;14.72;61.30
48527;BME280;34317;51.660;5.824;2022-12-29T03:47:32;99860.91;;;14.72;61.30
48527;BME280;34317;51.660;5.824;2022-12-29T03:50:00;99857.38;;;14.71;61.34
48527;BME280;34317;51.660;5.824;2022-12-29T03:52:28;99857.50;;;14.70;61.38
48527;BME280;34317;51.660;5.824;2022-12-29T03:54:55;99873.50;;;14.70;61.23
48527;BME280;34317;51.660;5.824;2022-12-29T03:57:23;99868.16;;;14.70;61.18
48527;BME280;34317;51.660;5.824;2022-12-29T03:59:57;99870.09;;;14.68;61.16
48527;BME280;34317;51.660;5.824;2022-12-29T04:02:24;99871.06;;;14.67;61.16
48527;BME280;34317;51.660;5.824;2022-12-29T04:04:52;99866.00;;;14.64;61.12
48527;BME280;34317;51.660;5.824;2022-12-29T04:07:19;99868.66;;;14.64;61.13
48527;BME280;34317;51.660;5.824;2022-12-29T04:09:50;99861.63;;;14.63;61.09
48527;BME280;34317;51.660;5.824;2022-12-29T04:12:21;99864.38;;;14.61;61.10
48527;BME280;34317;51.660;5.824;2022-12-29T04:14:48;99876.16;;;14.58;61.02
48527;BME280;34317;51.660;5.824;2022-12-29T04:17:17;99881.47;;;14.58;61.05
48527;BME280;34317;51.660;5.824;2022-12-29T04:19:47;99885.09;;;14.57;61.27
48527;BME280;34317;51.660;5.824;2022-12-29T04:22:14;99883.38;;;14.56;61.01
48527;BME280;34317;51.660;5.824;2022-12-29T04:24:41;99899.38;;;14.56;60.99
48527;BME280;34317;51.660;5.824;2022-12-29T04:27:11;99887.00;;;14.55;61.04
48527;BME280;34317;51.660;5.824;2022-12-29T04:30:01;99880.22;;;14.51;61.04
48527;BME280;34317;51.660;5.824;2022-12-29T04:32:47;99866.38;;;14.46;60.96
48527;BME280;34317;51.660;5.824;2022-12-29T04:35:14;99863.25;;;14.41;61.11
48527;BME280;34317;51.660;5.824;2022-12-29T04:37:42;99894.59;;;14.37;61.12
48527;BME280;34317;51.660;5.824;2022-12-29T04:40:09;99894.22;;;14.31;61.10
48527;BME280;34317;51.660;5.824;2022-12-29T04:42:37;99884.75;;;14.27;61.24
48527;BME280;34317;51.660;5.824;2022-12-29T04:45:04;99896.63;;;14.23;61.10
48527;BME280;34317;51.660;5.824;2022-12-29T04:48:04;99887.50;;;14.14;61.09
48527;BME280;34317;51.660;5.824;2022-12-29T04:50:31;99894.97;;;14.09;61.12
48527;BME280;34317;51.660;5.824;2022-12-29T04:53:15;99885.63;;;14.03;61.29
48527;BME280;34317;51.660;5.824;2022-12-29T04:55:43;99896.75;;;13.97;61.18
48527;BME280;34317;51.660;5.824;2022-12-29T04:58:10;99885.56;;;13.92;61.18
48527;BME280;34317;51.660;5.824;2022-12-29T05:00:43;99887.50;;;13.90;61.07
48527;BME280;34317;51.660;5.824;2022-12-29T05:03:10;99892.34;;;13.85;61.11
48527;BME280;34317;51.660;5.824;2022-12-29T05:05:41;99888.19;;;13.80;60.93
48527;BME280;34317;51.660;5.824;2022-12-29T05:08:08;99906.22;;;13.77;61.01
48527;BME280;34317;51.660;5.824;2022-12-29T05:10:36;99910.03;;;13.73;61.12
48527;BME280;34317;51.660;5.824;2022-12-29T05:13:09;99922.72;;;13.69;61.06
48527;BME280;34317;51.660;5.824;2022-12-29T05:15:36;99918.59;;;13.65;61.03
48527;BME280;34317;51.660;5.824;2022-12-29T05:18:03;99918.84;;;13.62;60.99
48527;BME280;34317;51.660;5.824;2022-12-29T05:20:30;99920.75;;;13.60;60.92
48527;BME280;34317;51.660;5.824;2022-12-29T05:22:57;99932.44;;;13.57;60.98
48527;BME280;34317;51.660;5.824;2022-12-29T05:25:25;99941.50;;;13.55;60.82
48527;BME280;34317;51.660;5.824;2022-12-29T05:28:21;99936.41;;;13.52;61.17
48527;BME280;34317;51.660;5.824;2022-12-29T05:30:51;99946.09;;;13.53;60.95
48527;BME280;34317;51.660;5.824;2022-12-29T05:33:19;99953.34;;;13.51;60.89
48527;BME280;34317;51.660;5.824;2022-12-29T05:35:48;99962.28;;;13.50;60.74
48527;BME280;34317;51.660;5.824;2022-12-29T05:38:15;99964.19;;;13.48;60.69
48527;BME280;34317;51.660;5.824;2022-12-29T05:40:44;99973.13;;;13.47;60.60
48527;BME280;34317;51.660;5.824;2022-12-29T05:43:29;99975.03;;;13.44;60.74
48527;BME280;34317;51.660;5.824;2022-12-29T05:46:19;99976.97;;;13.42;60.75
48527;BME280;34317;51.660;5.824;2022-12-29T05:49:05;99979.97;;;13.38;60.91
48527;BME280;34317;51.660;5.824;2022-12-29T05:51:37;99979.84;;;13.39;60.90
48527;BME280;34317;51.660;5.824;2022-12-29T05:54:05;99982.50;;;13.39;60.76
48527;BME280;34317;51.660;5.824;2022-12-29T05:56:33;99984.19;;;13.40;60.83
48527;BME280;34317;51.660;5.824;2022-12-29T05:59:01;99983.16;;;13.43;60.64
48527;BME280;34317;51.660;5.824;2022-12-29T06:01:29;99987.41;;;13.46;60.79
48527;BME280;34317;51.660;5.824;2022-12-29T06:03:56;99981.88;;;13.49;60.64
48527;BME280;34317;51.660;5.824;2022-12-29T06:06:24;99982.59;;;13.51;60.51
48527;BME280;34317;51.660;5.824;2022-12-29T06:08:52;99988.66;;;13.53;60.49
48527;BME280;34317;51.660;5.824;2022-12-29T06:11:20;99993.75;;;13.56;60.32
48527;BME280;34317;51.660;5.824;2022-12-29T06:13:52;99993.53;;;13.59;59.99
48527;BME280;34317;51.660;5.824;2022-12-29T06:16:19;99984.38;;;13.63;60.11
48527;BME280;34317;51.660;5.824;2022-12-29T06:18:50;99992.16;;;13.66;59.88
48527;BME280;34317;51.660;5.824;2022-12-29T06:21:17;99985.63;;;13.70;59.88
48527;BME280;34317;51.660;5.824;2022-12-29T06:23:45;99988.09;;;13.73;59.58
48527;BME280;34317;51.660;5.824;2022-12-29T06:26:12;99978.19;;;13.75;59.50
48527;BME280;34317;51.660;5.824;2022-12-29T06:28:40;99981.56;;;13.77;59.26
48527;BME280;34317;51.660;5.824;2022-12-29T06:31:09;99981.34;;;13.80;59.19
48527;BME280;34317;51.660;5.824;2022-12-29T06:33:37;99985.72;;;13.81;59.10
48527;BME280;34317;51.660;5.824;2022-12-29T06:36:04;99977.72;;;13.81;59.11
48527;BME280;34317;51.660;5.824;2022-12-29T06:38:32;99984.78;;;13.82;59.01
48527;BME280;34317;51.660;5.824;2022-12-29T06:40:59;99979.44;;;13.82;59.04
48527;BME280;34317;51.660;5.824;2022-12-29T06:43:45;99983.06;;;13.81;58.78
48527;BME280;34317;51.660;5.824;2022-12-29T06:46:28;99971.66;;;13.79;58.68
48527;BME280;34317;51.660;5.824;2022-12-29T06:48:55;99963.69;;;13.79;58.69
48527;BME280;34317;51.660;5.824;2022-12-29T06:51:22;99963.69;;;13.79;58.65
48527;BME280;34317;51.660;5.824;2022-12-29T06:53:49;99979.66;;;13.79;58.46
48527;BME280;34317;51.660;5.824;2022-12-29T06:56:16;99961.97;;;13.78;58.47
48527;BME280;34317;51.660;5.824;2022-12-29T06:58:43;99969.00;;;13.79;58.32
48527;BME280;34317;51.660;5.824;2022-12-29T07:01:10;99977.94;;;13.78;58.13
48527;BME280;34317;51.660;5.824;2022-12-29T07:03:37;99974.34;;;13.79;58.00
48527;BME280;34317;51.660;5.824;2022-12-29T07:06:05;99984.97;;;13.79;57.64
48527;BME280;34317;51.660;5.824;2022-12-29T07:08:32;99986.91;;;13.77;57.68
48527;BME280;34317;51.660;5.824;2022-12-29T07:10:59;99992.97;;;13.79;57.54
48527;BME280;34317;51.660;5.824;2022-12-29T07:13:26;99991.13;;;13.80;57.37
48527;BME280;34317;51.660;5.824;2022-12-29T07:15:53;99994.66;;;13.80;57.32
48527;BME280;34317;51.660;5.824;2022-12-29T07:18:20;99992.84;;;13.81;57.29
48527;BME280;34317;51.660;5.824;2022-12-29T07:20:47;100005.09;;;13.83;57.28
48527;BME280;34317;51.660;5.824;2022-12-29T07:23:14;100006.06;;;13.82;57.37
48527;BME280;34317;51.660;5.824;2022-12-29T07:25:41;100014.78;;;13.85;57.20
48527;BME280;34317;51.660;5.824;2022-12-29T07:28:08;100012.84;;;13.87;57.14
48527;BME280;34317;51.660;5.824;2022-12-29T07:30:36;100023.25;;;13.90;57.21
48527;BME280;34317;51.660;5.824;2022-12-29T07:33:04;100028.38;;;13.93;57.21
48527;BME280;34317;51.660;5.824;2022-12-29T07:35:33;100028.16;;;13.96;57.06
48527;BME280;34317;51.660;5.824;2022-12-29T07:38:01;100035.19;;;13.97;57.16
48527;BME280;34317;51.660;5.824;2022-12-29T07:40:28;100029.66;;;14.00;57.06
48527;BME280;34317;51.660;5.824;2022-12-29T07:42:55;100041.97;;;14.01;57.06
48527;BME280;34317;51.660;5.824;2022-12-29T07:45:31;100044.53;;;14.02;56.78
48527;BME280;34317;51.660;5.824;2022-12-29T07:48:07;100045.38;;;14.03;56.71
48527;BME280;34317;51.660;5.824;2022-12-29T07:50:35;100040.06;;;14.03;56.79
48527;BME280;34317;51.660;5.824;2022-12-29T07:53:03;100053.34;;;14.03;56.45
48527;BME280;34317;51.660;5.824;2022-12-29T07:55:30;100041.97;;;14.01;56.39
48527;BME280;34317;51.660;5.824;2022-12-29T07:57:57;100061.34;;;14.03;56.25
48527;BME280;34317;51.660;5.824;2022-12-29T08:00:25;100045.63;;;14.00;56.21
48527;BME280;34317;51.660;5.824;2022-12-29T08:02:52;100051.03;;;13.98;56.17
48527;BME280;34317;51.660;5.824;2022-12-29T08:05:19;100048.50;;;13.97;56.16
48527;BME280;34317;51.660;5.824;2022-12-29T08:07:46;100051.16;;;13.97;56.13
48527;BME280;34317;51.660;5.824;2022-12-29T08:10:14;100063.50;;;13.98;56.00
48527;BME280;34317;51.660;5.824;2022-12-29T08:12:41;100057.31;;;13.97;56.14
48527;BME280;34317;51.660;5.824;2022-12-29T08:15:11;100058.19;;;13.98;55.96
48527;BME280;34317;51.660;5.824;2022-12-29T08:17:38;100066.91;;;14.00;56.12
48527;BME280;34317;51.660;5.824;2022-12-29T08:20:06;100070.31;;;14.02;56.15
48527;BME280;34317;51.660;5.824;2022-12-29T08:22:33;100069.34;;;14.03;56.17
48527;BME280;34317;51.660;5.824;2022-12-29T08:25:00;100082.44;;;14.06;56.06
48527;BME280;34317;51.660;5.824;2022-12-29T08:27:27;100078.84;;;14.07;55.88
48527;BME280;34317;51.660;5.824;2022-12-29T08:29:54;100075.19;;;14.08;55.96
48527;BME280;34317;51.660;5.824;2022-12-29T08:32:22;100075.19;;;14.08;56.15
48527;BME280;34317;51.660;5.824;2022-12-29T08:34:49;100078.59;;;14.10;56.04
48527;BME280;34317;51.660;5.824;2022-12-29T08:37:16;100079.31;;;14.12;55.81
48527;BME280;34317;51.660;5.824;2022-12-29T08:39:43;100089.88;;;14.14;55.61
48527;BME280;34317;51.660;5.824;2022-12-29T08:42:10;100076.44;;;14.15;55.71
48527;BME280;34317;51.660;5.824;2022-12-29T08:44:37;100070.91;;;14.18;55.77
48527;BME280;34317;51.660;5.824;2022-12-29T08:47:04;100072.59;;;14.19;55.82
48527;BME280;34317;51.660;5.824;2022-12-29T08:49:31;100074.31;;;14.20;55.49
48527;BME280;34317;51.660;5.824;2022-12-29T08:52:00;100083.03;;;14.23;55.48
48527;BME280;34317;51.660;5.824;2022-12-29T08:54:27;100079.41;;;14.24;55.40
48527;BME280;34317;51.660;5.824;2022-12-29T08:56:54;100075.78;;;14.25;55.13
48527;BME280;34317;51.660;5.824;2022-12-29T08:59:26;100090.69;;;14.27;55.28
48527;BME280;34317;51.660;5.824;2022-12-29T09:01:53;100078.97;;;14.30;55.24
48527;BME280;34317;51.660;5.824;2022-12-29T09:04:20;100085.88;;;14.32;55.23
48527;BME280;34317;51.660;5.824;2022-12-29T09:06:48;100073.19;;;14.36;55.28
48527;BME280;34317;51.660;5.824;2022-12-29T09:09:15;100072.22;;;14.37;54.95
48527;BME280;34317;51.660;5.824;2022-12-29T09:11:44;100080.00;;;14.40;54.99
48527;BME280;34317;51.660;5.824;2022-12-29T09:14:11;100078.91;;;14.43;54.88
48527;BME280;34317;51.660;5.824;2022-12-29T09:16:39;100082.31;;;14.45;54.93
48527;BME280;34317;51.660;5.824;2022-12-29T09:19:06;100083.19;;;14.45;54.53
48527;BME280;34317;51.660;5.824;2022-12-29T09:21:33;100090.19;;;14.46;54.64
48527;BME280;34317;51.660;5.824;2022-12-29T09:24:00;100082.94;;;14.48;54.67
48527;BME280;34317;51.660;5.824;2022-12-29T09:26:27;100076.66;;;14.49;54.50
48527;BME280;34317;51.660;5.824;2022-12-29T09:28:54;100097.00;;;14.50;54.59
48527;BME280;34317;51.660;5.824;2022-12-29T09:31:22;100091.66;;;14.50;54.52
48527;BME280;34317;51.660;5.824;2022-12-29T09:33:49;100100.41;;;14.52;54.54
48527;BME280;34317;51.660;5.824;2022-12-29T09:36:16;100094.84;;;14.55;54.49
48527;BME280;34317;51.660;5.824;2022-12-29T09:38:43;100096.56;;;14.56;54.37
48527;BME280;34317;51.660;5.824;2022-12-29T09:41:20;100093.81;;;14.58;54.28
48527;BME280;34317;51.660;5.824;2022-12-29T09:43:56;100119.38;;;14.60;54.48
48527;BME280;34317;51.660;5.824;2022-12-29T09:46:32;100117.44;;;14.63;54.26
48527;BME280;34317;51.660;5.824;2022-12-29T09:51:53;100126.41;;;14.62;54.31
48527;BME280;34317;51.660;5.824;2022-12-29T09:54:28;100123.00;;;14.59;54.14
48527;BME280;34317;51.660;5.824;2022-12-29T09:56:58;100134.63;;;14.58;54.31
48527;BME280;34317;51.660;5.824;2022-12-29T09:59:46;100133.88;;;14.56;54.38
48527;BME280;34317;51.660;5.824;2022-12-29T10:02:36;100139.19;;;14.56;54.34
48527;BME280;34317;51.660;5.824;2022-12-29T10:06:01;100142.81;;;14.55;54.14
48527;BME280;34317;51.660;5.824;2022-12-29T10:08:27;100153.72;;;14.52;54.45
48527;BME280;34317;51.660;5.824;2022-12-29T10:17:04;100159.72;;;14.43;54.93
48527;BME280;34317;51.660;5.824;2022-12-29T10:25:16;100172.22;;;14.30;55.14
48527;BME280;34317;51.660;5.824;2022-12-29T10:27:49;100162.69;;;14.26;55.18
48527;BME280;34317;51.660;5.824;2022-12-29T10:30:17;100178.94;;;14.23;55.37
48527;BME280;34317;51.660;5.824;2022-12-29T10:33:06;100202.34;;;14.17;55.36
48527;BME280;34317;51.660;5.824;2022-12-29T10:35:37;100202.56;;;14.14;55.52
48527;BME280;34317;51.660;5.824;2022-12-29T10:38:29;100197.69;;;14.08;55.64
48527;BME280;34317;51.660;5.824;2022-12-29T10:41:28;100219.19;;;14.05;55.80
48527;BME280;34317;51.660;5.824;2022-12-29T10:44:00;100211.63;;;13.99;55.87
48527;BME280;34317;51.660;5.824;2022-12-29T10:46:30;100227.84;;;13.96;56.08
48527;BME280;34317;51.660;5.824;2022-12-29T10:48:59;100232.41;;;13.94;56.23
48527;BME280;34317;51.660;5.824;2022-12-29T10:51:40;100227.28;;;13.91;56.25
48527;BME280;34317;51.660;5.824;2022-12-29T10:54:25;100243.47;;;13.88;56.30
48527;BME280;34317;51.660;5.824;2022-12-29T10:56:57;100241.78;;;13.87;56.47
48527;BME280;34317;51.660;5.824;2022-12-29T10:59:31;100246.47;;;13.83;56.43
48527;BME280;34317;51.660;5.824;2022-12-29T11:07:22;100254.97;;;13.75;56.91
48527;BME280;34317;51.660;5.824;2022-12-29T11:09:53;100249.84;;;13.72;56.91
48527;BME280;34317;51.660;5.824;2022-12-29T11:12:30;100254.41;;;13.70;56.98
48527;BME280;34317;51.660;5.824;2022-12-29T11:15:11;100258.03;;;13.69;57.02
48527;BME280;34317;51.660;5.824;2022-12-29T11:17:49;100252.19;;;13.64;56.99
48527;BME280;34317;51.660;5.824;2022-12-29T11:20:36;100264.59;;;13.63;57.15
48527;BME280;34317;51.660;5.824;2022-12-29T11:23:22;100268.16;;;13.64;57.29
48527;BME280;34317;51.660;5.824;2022-12-29T11:28:39;100289.22;;;13.67;57.51
48527;BME280;34317;51.660;5.824;2022-12-29T11:31:08;100287.50;;;13.66;57.51
48527;BME280;34317;51.660;5.824;2022-12-29T11:33:37;100285.59;;;13.68;57.60
48527;BME280;34317;51.660;5.824;2022-12-29T11:36:17;100290.94;;;13.68;57.50
48527;BME280;34317;51.660;5.824;2022-12-29T11:38:49;100287.50;;;13.66;57.55
48527;BME280;34317;51.660;5.824;2022-12-29T11:41:31;100289.44;;;13.64;57.49
48527;BME280;34317;51.660;5.824;2022-12-29T11:44:01;100301.75;;;13.65;57.50
48527;BME280;34317;51.660;5.824;2022-12-29T11:46:32;100296.44;;;13.65;57.72
48527;BME280;34317;51.660;5.824;2022-12-29T11:49:01;100280.47;;;13.65;57.93
48527;BME280;34317;51.660;5.824;2022-12-29T11:51:49;100307.09;;;13.65;57.80
48527;BME280;34317;51.660;5.824;2022-12-29T11:56:50;100308.81;;;13.66;57.60
48527;BME280;34317;51.660;5.824;2022-12-29T11:59:41;100322.13;;;13.66;57.69
48527;BME280;34317;51.660;5.824;2022-12-29T12:02:30;100310.50;;;13.67;57.86
48527;BME280;34317;51.660;5.824;2022-12-29T12:05:17;100318.38;;;13.69;57.73
48527;BME280;34317;51.660;5.824;2022-12-29T12:08:37;100310.31;;;13.70;57.93
48527;BME280;34317;51.660;5.824;2022-12-29T12:11:15;100317.13;;;13.74;57.83
48527;BME280;34317;51.660;5.824;2022-12-29T12:16:22;100314.16;;;13.79;57.81
48527;BME280;34317;51.660;5.824;2022-12-29T12:19:03;100318.41;;;13.81;57.91
48527;BME280;34317;51.660;5.824;2022-12-29T12:21:40;100325.25;;;13.86;58.02
48527;BME280;34317;51.660;5.824;2022-12-29T12:24:34;100321.63;;;13.87;57.79
48527;BME280;34317;51.660;5.824;2022-12-29T12:30:03;100318.47;;;13.94;57.71
48527;BME280;34317;51.660;5.824;2022-12-29T12:32:39;100317.38;;;13.97;57.68
48527;BME280;34317;51.660;5.824;2022-12-29T12:35:16;100315.47;;;13.99;57.62
48527;BME280;34317;51.660;5.824;2022-12-29T12:40:46;100327.59;;;14.03;57.60
48527;BME280;34317;51.660;5.824;2022-12-29T12:43:45;100331.25;;;14.02;57.34
48527;BME280;34317;51.660;5.824;2022-12-29T12:51:46;100327.59;;;14.03;57.41
48527;BME280;34317;51.660;5.824;2022-12-29T12:57:08;100336.16;;;14.08;57.43
48527;BME280;34317;51.660;5.824;2022-12-29T13:02:21;100342.78;;;14.15;57.37
48527;BME280;34317;51.660;5.824;2022-12-29T13:07:56;100340.53;;;14.22;56.88
48527;BME280;34317;51.660;5.824;2022-12-29T13:10:50;100338.72;;;14.23;56.71
48527;BME280;34317;51.660;5.824;2022-12-29T13:18:59;100347.47;;;14.25;56.22
48527;BME280;34317;51.660;5.824;2022-12-29T13:30:15;100354.28;;;14.29;56.04
48527;BME280;34317;51.660;5.824;2022-12-29T13:32:58;100349.69;;;14.31;55.81
48527;BME280;34317;51.660;5.824;2022-12-29T13:35:51;100368.34;;;14.31;55.77
48527;BME280;34317;51.660;5.824;2022-12-29T13:38:32;100352.38;;;14.31;55.82
48527;BME280;34317;51.660;5.824;2022-12-29T13:41:04;100364.94;;;14.29;55.78
48527;BME280;34317;51.660;5.824;2022-12-29T13:43:36;100374.09;;;14.25;55.90
48527;BME280;34317;51.660;5.824;2022-12-29T13:46:12;100383.47;;;14.17;55.91
48527;BME280;34317;51.660;5.824;2022-12-29T13:48:46;100377.91;;;14.08;56.08
48527;BME280;34317;51.660;5.824;2022-12-29T13:51:16;100382.34;;;13.94;56.24
48527;BME280;34317;51.660;5.824;2022-12-29T13:56:52;100390.31;;;13.67;56.74
48527;BME280;34317;51.660;5.824;2022-12-29T14:05:00;100402.56;;;13.42;57.59
48527;BME280;34317;51.660;5.824;2022-12-29T14:07:28;100404.47;;;13.40;57.77
48527;BME280;34317;51.660;5.824;2022-12-29T14:09:57;100402.97;;;13.36;58.07
48527;BME280;34317;51.660;5.824;2022-12-29T14:12:27;100403.91;;;13.35;58.25
48527;BME280;34317;51.660;5.824;2022-12-29T14:15:15;100401.47;;;13.32;58.10
48527;BME280;34317;51.660;5.824;2022-12-29T14:18:02;100396.28;;;13.29;58.32
48527;BME280;34317;51.660;5.824;2022-12-29T14:20:30;100400.94;;;13.25;58.29
48527;BME280;34317;51.660;5.824;2022-12-29T14:28:29;100405.06;;;13.17;58.47
48527;BME280;34317;51.660;5.824;2022-12-29T14:31:02;100413.22;;;13.14;58.81
48527;BME280;34317;51.660;5.824;2022-12-29T14:33:32;100406.19;;;13.13;58.67
48527;BME280;34317;51.660;5.824;2022-12-29T14:36:19;100406.19;;;13.13;58.81
48527;BME280;34317;51.660;5.824;2022-12-29T14:38:47;100408.09;;;13.11;58.70
48527;BME280;34317;51.660;5.824;2022-12-29T14:41:26;100403.72;;;13.10;58.82
48527;BME280;34317;51.660;5.824;2022-12-29T14:46:47;100419.09;;;13.04;58.85
48527;BME280;34317;51.660;5.824;2022-12-29T14:49:18;100413.97;;;13.01;59.02
48527;BME280;34317;51.660;5.824;2022-12-29T14:51:47;100415.88;;;12.99;59.00
48527;BME280;34317;51.660;5.824;2022-12-29T14:54:42;100428.41;;;12.97;59.00
48527;BME280;34317;51.660;5.824;2022-12-29T14:57:19;100436.47;;;12.96;59.01
48527;BME280;34317;51.660;5.824;2022-12-29T14:59:48;100435.63;;;12.95;59.02
48527;BME280;34317;51.660;5.824;2022-12-29T15:02:22;100433.94;;;12.94;59.16
48527;BME280;34317;51.660;5.824;2022-12-29T15:04:51;100438.38;;;12.94;59.26
48527;BME280;34317;51.660;5.824;2022-12-29T15:07:20;100441.16;;;12.92;59.24
48527;BME280;34317;51.660;5.824;2022-12-29T15:09:56;100440.19;;;12.93;59.20